Time;durP1;ratioP1;P1;durP2;ratioP2;P2;SDS_P1;SDS_P2;PMS_P1;PMS_P2;Temp;Humidity;BMP_temperature;BMP_pressure;BME280_temperature;BME280_humidity;BME280_pressure;Samples;Min_cycle;Max_cycle;Signal;HPM_P1;HPM_P2
2021/08/07 00:03:05;;;;;;;7.68;5.45;;;;;;;;;;10281316;28;20076;-62
2021/08/07 00:08:04;;;;;;;5.18;4.57;;;;;;;;;;10280135;28;20088;-61
2021/08/07 00:13:03;;;;;;;9.95;5.18;;;;;;;;;;10280986;28;20494;-62
2021/08/07 00:18:02;;;;;;;6.45;5.20;;;;;;;;;;10279918;28;20454;-62
2021/08/07 00:23:01;;;;;;;7.05;5.13;;;;;;;;;;10280794;28;20445;-62
2021/08/07 00:27:59;;;;;;;7.18;4.40;;;;;;;;;;10291025;28;20513;-62
2021/08/07 00:32:57;;;;;;;7.35;4.50;;;;;;;;;;10281579;28;20053;-62
2021/08/07 00:37:57;;;;;;;6.82;4.47;;;;;;;;;;10279056;28;20049;-63
2021/08/07 00:42:55;;;;;;;6.63;3.95;;;;;;;;;;10278166;28;20048;-63
2021/08/07 00:48:00;;;;;;;5.00;4.20;;;;;;;;;;10278052;28;20109;-63
2021/08/07 00:53:07;;;;;;;4.35;3.88;;;;;;;;;;10279141;28;20075;-63
2021/08/07 00:58:06;;;;;;;6.32;4.35;;;;;;;;;;10277025;28;20060;-62
2021/08/07 01:03:07;;;;;;;10.02;4.78;;;;;;;;;;10279208;28;20166;-63
2021/08/07 01:08:14;;;;;;;6.63;5.00;;;;;;;;;;10277261;28;20413;-63
2021/08/07 01:13:17;;;;;;;9.90;5.50;;;;;;;;;;10277029;28;20430;-63
2021/08/07 01:18:19;;;;;;;8.10;5.72;;;;;;;;;;10276280;28;20064;-63
2021/08/07 01:23:33;;;;;;;9.38;6.57;;;;;;;;;;10277314;28;20065;-63
2021/08/07 01:28:39;;;;;;;8.48;6.60;;;;;;;;;;10275994;28;20057;-63
2021/08/07 01:33:39;;;;;;;8.02;7.22;;;;;;;;;;10275508;28;20049;-63
2021/08/07 01:38:46;;;;;;;11.23;6.90;;;;;;;;;;10275695;28;20372;-62
2021/08/07 01:43:47;;;;;;;10.30;7.95;;;;;;;;;;10275286;28;20413;-62
2021/08/07 01:48:56;;;;;;;9.07;7.93;;;;;;;;;;10275375;28;20056;-63
2021/08/07 01:54:04;;;;;;;11.23;7.47;;;;;;;;;;10275499;28;20061;-63
2021/08/07 01:59:07;;;;;;;;;;;;;;;;;;10276035;28;20049;-64
2021/08/07 02:04:09;;;;;;;11.85;7.88;;;;;;;;;;10275466;28;19944;-62
2021/08/07 02:09:17;;;;;;;11.68;8.05;;;;;;;;;;10274705;28;20432;-61
2021/08/07 02:14:25;;;;;;;9.88;8.25;;;;;;;;;;10274357;28;20414;-61
2021/08/07 02:19:29;;;;;;;9.45;7.53;;;;;;;;;;10281688;28;20084;-60
2021/08/07 02:24:29;;;;;;;10.25;7.50;;;;;;;;;;10291101;28;20068;-62
2021/08/07 02:29:30;;;;;;;9.20;6.90;;;;;;;;;;10294513;28;20060;-62
2021/08/07 02:34:38;;;;;;;8.82;7.97;;;;;;;;;;10273708;28;20061;-63
2021/08/07 02:39:41;;;;;;;9.63;7.90;;;;;;;;;;10273822;28;20049;-62
2021/08/07 02:44:42;;;;;;;9.55;8.65;;;;;;;;;;10273859;28;20041;-63
2021/08/07 02:49:42;;;;;;;10.60;8.02;;;;;;;;;;10297776;28;20072;-62
2021/08/07 02:54:41;;;;;;;9.15;7.68;;;;;;;;;;10312395;28;20090;-61
2021/08/07 02:59:40;;;;;;;11.52;7.38;;;;;;;;;;10310519;28;20044;-61
2021/08/07 03:04:38;;;;;;;11.98;7.85;;;;;;;;;;10310481;28;20080;-61
2021/08/07 03:09:39;;;;;;;11.07;8.32;;;;;;;;;;10313912;28;20049;-61
2021/08/07 03:14:38;;;;;;;8.20;6.95;;;;;;;;;;10314391;28;20067;-61
2021/08/07 03:19:37;;;;;;;8.85;7.40;;;;;;;;;;10313174;28;20080;-62
2021/08/07 03:24:37;;;;;;;9.52;7.70;;;;;;;;;;10304412;28;20049;-61
2021/08/07 03:29:37;;;;;;;6.85;6.15;;;;;;;;;;10307657;28;20045;-62
2021/08/07 03:34:42;;;;;;;7.03;6.30;;;;;;;;;;10280124;28;20061;-62
2021/08/07 03:39:42;;;;;;;9.93;6.90;;;;;;;;;;10280444;28;20048;-62
2021/08/07 03:44:42;;;;;;;7.70;5.90;;;;;;;;;;10280466;28;20059;-62
2021/08/07 03:49:41;;;;;;;9.68;6.38;;;;;;;;;;10280644;28;20383;-62
2021/08/07 03:54:39;;;;;;;6.00;5.18;;;;;;;;;;10279978;28;20041;-62
2021/08/07 03:59:38;;;;;;;6.75;5.90;;;;;;;;;;10280293;28;20517;-62
2021/08/07 04:04:38;;;;;;;6.57;5.28;;;;;;;;;;10279184;28;20096;-62
2021/08/07 04:09:37;;;;;;;12.00;6.03;;;;;;;;;;10279588;28;20053;-62
2021/08/07 04:14:38;;;;;;;5.88;5.15;;;;;;;;;;10295050;28;20490;-62
2021/08/07 04:19:42;;;;;;;6.90;5.82;;;;;;;;;;10289434;28;20060;-62
2021/08/07 04:24:50;;;;;;;6.93;5.03;;;;;;;;;;10320782;28;20433;-62
2021/08/07 04:29:49;;;;;;;7.30;5.05;;;;;;;;;;10310410;28;20214;-62
2021/08/07 04:34:50;;;;;;;6.45;4.25;;;;;;;;;;10301651;28;20053;-61
2021/08/07 04:39:51;;;;;;;9.02;4.05;;;;;;;;;;10278476;28;20421;-62
2021/08/07 04:44:50;;;;;;;5.93;4.60;;;;;;;;;;10278169;28;20048;-61
2021/08/07 04:49:50;;;;;;;8.10;4.95;;;;;;;;;;10277976;28;20052;-62
2021/08/07 04:54:49;;;;;;;5.85;5.28;;;;;;;;;;10277870;28;20060;-61
2021/08/07 04:59:47;;;;;;;6.05;4.75;;;;;;;;;;10278121;28;20517;-62
2021/08/07 05:04:46;;;;;;;5.93;4.88;;;;;;;;;;10277512;28;20441;-61
2021/08/07 05:09:47;;;;;;;5.57;4.72;;;;;;;;;;10277369;28;20087;-62
2021/08/07 05:14:51;;;;;;;8.48;5.22;;;;;;;;;;10291436;28;20073;-62
2021/08/07 05:19:51;;;;;;;8.32;4.90;;;;;;;;;;10298289;28;20098;-61
2021/08/07 05:24:51;;;;;;;5.32;4.50;;;;;;;;;;10291690;28;20076;-62
2021/08/07 05:29:51;;;;;;;6.13;3.50;;;;;;;;;;10296346;28;20091;-61
2021/08/07 05:34:50;;;;;;;4.85;3.35;;;;;;;;;;10274445;28;20080;-62
2021/08/07 05:39:53;;;;;;;8.68;3.33;;;;;;;;;;10272830;28;20053;-62
2021/08/07 05:44:51;;;;;;;5.25;3.50;;;;;;;;;;10274050;28;20528;-61
2021/08/07 05:49:50;;;;;;;3.58;3.28;;;;;;;;;;10276014;28;20075;-61
2021/08/07 05:54:48;;;;;;;3.90;3.33;;;;;;;;;;10276968;28;20064;-62
2021/08/07 05:59:48;;;;;;;10.07;3.15;;;;;;;;;;10275601;28;20056;-62
2021/08/07 06:04:47;;;;;;;6.88;3.08;;;;;;;;;;10274982;28;20048;-62
2021/08/07 06:09:45;;;;;;;6.05;3.55;;;;;;;;;;10276193;28;20037;-61
2021/08/07 06:14:45;;;;;;;4.78;3.25;;;;;;;;;;10274642;28;20048;-61
2021/08/07 06:19:45;;;;;;;7.10;3.97;;;;;;;;;;10274400;28;20045;-61
2021/08/07 06:24:45;;;;;;;4.88;4.22;;;;;;;;;;10275602;28;20072;-61
2021/08/07 06:29:43;;;;;;;4.93;3.17;;;;;;;;;;10275583;28;20041;-62
2021/08/07 06:34:42;;;;;;;4.60;2.92;;;;;;;;;;10273666;28;20087;-63
2021/08/07 06:39:42;;;;;;;10.57;4.00;;;;;;;;;;10275050;28;20437;-62
2021/08/07 06:44:40;;;;;;;7.20;4.30;;;;;;;;;;10273375;28;20099;-62
2021/08/07 06:49:39;;;;;;;11.95;7.40;;;;;;;;;;10274247;28;20045;-62
2021/08/07 06:54:38;;;;;;;13.20;3.78;;;;;;;;;;10281652;28;20048;-61
2021/08/07 06:59:40;;;;;;;12.68;4.18;;;;;;;;;;10281729;28;20049;-62
2021/08/07 07:04:38;;;;;;;10.68;4.07;;;;;;;;;;10282568;28;20083;-62
2021/08/07 07:09:39;;;;;;;103.70;10.40;;;;;;;;;;10281489;28;20040;-60
2021/08/07 07:14:40;;;;;;;11.02;3.78;;;;;;;;;;10280053;28;20064;-63
2021/08/07 07:19:38;;;;;;;7.85;3.25;;;;;;;;;;10282281;28;20044;-65
2021/08/07 07:24:37;;;;;;;4.45;3.47;;;;;;;;;;10281170;28;20087;-67
2021/08/07 07:29:36;;;;;;;5.47;4.13;;;;;;;;;;10281001;28;20147;-65
2021/08/07 07:34:36;;;;;;;7.00;3.53;;;;;;;;;;10286412;28;20045;-66
2021/08/07 07:39:36;;;;;;;17.50;3.97;;;;;;;;;;10280569;28;20056;-65
2021/08/07 07:44:34;;;;;;;10.18;3.38;;;;;;;;;;10292590;28;20083;-64
2021/08/07 07:49:33;;;;;;;9.15;3.83;;;;;;;;;;10315740;28;20485;-63
2021/08/07 07:54:33;;;;;;;28.88;12.10;;;;;;;;;;10279956;28;20052;-64
2021/08/07 07:59:32;;;;;;;11.38;4.75;;;;;;;;;;10297127;28;20675;-64
2021/08/07 08:04:34;;;;;;;33.47;5.75;;;;;;;;;;10288955;28;20080;-65
2021/08/07 08:09:36;;;;;;;14.63;5.20;;;;;;;;;;10280102;28;20049;-65
2021/08/07 08:14:34;;;;;;;6.00;3.72;;;;;;;;;;10279522;28;20049;-65
2021/08/07 08:19:33;;;;;;;46.17;7.32;;;;;;;;;;10279293;28;20080;-62
2021/08/07 08:24:32;;;;;;;15.57;5.07;;;;;;;;;;10292230;28;20056;-63
2021/08/07 08:29:31;;;;;;;6.80;3.72;;;;;;;;;;10289762;28;20465;-63
2021/08/07 08:34:31;;;;;;;8.20;4.05;;;;;;;;;;10277846;28;20057;-63
2021/08/07 08:39:29;;;;;;;8.50;6.53;;;;;;;;;;10278658;28;20052;-61
2021/08/07 08:44:28;;;;;;;7.75;3.55;;;;;;;;;;10285524;28;20148;-61
2021/08/07 08:49:30;;;;;;;4.28;2.80;;;;;;;;;;10282833;28;20083;-62
2021/08/07 08:54:28;;;;;;;9.82;5.22;;;;;;;;;;10307062;28;20516;-65
2021/08/07 08:59:27;;;;;;;6.55;2.75;;;;;;;;;;10342795;28;20048;-63
2021/08/07 09:04:26;;;;;;;3.40;3.00;;;;;;;;;;10326344;28;20071;-63
2021/08/07 09:09:39;;;;;;;7.13;5.35;;;;;;;;;;10316216;28;20162;-63
2021/08/07 09:14:42;;;;;;;6.47;5.82;;;;;;;;;;10316399;28;20060;-63
2021/08/07 09:19:55;;;;;;;4.95;3.05;;;;;;;;;;10292293;28;20461;-65
2021/08/07 09:24:56;;;;;;;4.28;2.58;;;;;;;;;;10291748;28;20087;-63
2021/08/07 09:29:55;;;;;;;4.30;3.30;;;;;;;;;;10296645;28;20087;-62
2021/08/07 09:35:04;;;;;;;6.15;2.38;;;;;;;;;;10303464;28;20053;-62
2021/08/07 09:40:06;;;;;;;2.47;2.20;;;;;;;;;;10278183;28;20045;-63
2021/08/07 09:45:05;;;;;;;3.58;2.25;;;;;;;;;;10283368;28;20084;-62
2021/08/07 09:50:20;;;;;;;3.53;2.25;;;;;;;;;;10291068;28;20505;-61
2021/08/07 09:55:20;;;;;;;3.78;2.80;;;;;;;;;;10300943;28;20064;-62
2021/08/07 10:00:33;;;;;;;4.38;2.60;;;;;;;;;;10305470;28;20055;-64
2021/08/07 10:05:33;;;;;;;2.88;2.03;;;;;;;;;;10287990;28;20056;-63
2021/08/07 10:10:33;;;;;;;7.30;2.35;;;;;;;;;;10275115;28;20056;-63
2021/08/07 10:15:35;;;;;;;;;;;;;;;;;;10275615;28;20045;-66
2021/08/07 10:20:34;;;;;;;8.90;2.90;;;;;;;;;;10282749;28;19920;-68
2021/08/07 10:25:35;;;;;;;219.60;34.90;;;;;;;;;;10288834;28;20063;-67
2021/08/07 10:30:34;;;;;;;194.18;27.70;;;;;;;;;;10297923;28;20501;-66
2021/08/07 10:35:33;;;;;;;78.65;13.50;;;;;;;;;;10311372;28;20076;-64
2021/08/07 10:40:34;;;;;;;13.52;3.80;;;;;;;;;;10264135;28;20144;-66
2021/08/07 10:45:33;;;;;;;25.95;5.80;;;;;;;;;;10264193;28;20140;-68
2021/08/07 10:50:34;;;;;;;20.15;5.85;;;;;;;;;;10295556;28;20072;-67
2021/08/07 10:55:45;;;;;;;4.18;2.42;;;;;;;;;;10292780;28;20430;-66
2021/08/07 11:00:43;;;;;;;7.90;3.20;;;;;;;;;;10288664;28;20048;-67
2021/08/07 11:05:51;;;;;;;5.55;3.75;;;;;;;;;;10273749;28;20073;-68
2021/08/07 11:10:51;;;;;;;4.75;2.50;;;;;;;;;;10273006;28;20072;-67
2021/08/07 11:16:09;;;;;;;10.77;2.75;;;;;;;;;;10283997;28;20083;-65
2021/08/07 11:21:07;;;;;;;18.90;3.58;;;;;;;;;;10297724;28;20048;-72
2021/08/07 11:26:07;;;;;;;15.65;3.10;;;;;;;;;;10294694;28;20079;-67
2021/08/07 11:31:13;;;;;;;11.73;4.95;;;;;;;;;;10280766;28;20072;-69
2021/08/07 11:36:13;;;;;;;6.97;2.42;;;;;;;;;;10285480;28;20061;-68
2021/08/07 11:41:28;;;;;;;5.20;2.50;;;;;;;;;;10281011;28;20085;-68
2021/08/07 11:46:32;;;;;;;3.38;3.08;;;;;;;;;;10293583;28;20072;-68
2021/08/07 11:51:32;;;;;;;3.10;2.35;;;;;;;;;;10280318;28;20045;-69
2021/08/07 11:56:34;;;;;;;9.90;3.28;;;;;;;;;;10289101;28;20502;-68
2021/08/07 12:01:35;;;;;;;3.10;2.80;;;;;;;;;;10302289;28;20072;-66
2021/08/07 12:06:35;;;;;;;5.35;2.35;;;;;;;;;;10297973;28;20092;-66
2021/08/07 12:11:35;;;;;;;3.63;2.42;;;;;;;;;;10304539;28;20425;-67
2021/08/07 12:16:37;;;;;;;4.53;2.63;;;;;;;;;;10292283;28;20405;-67
2021/08/07 12:21:36;;;;;;;3.95;2.00;;;;;;;;;;10294959;28;20068;-66
2021/08/07 12:26:41;;;;;;;2.08;1.83;;;;;;;;;;10301877;28;20131;-65
2021/08/07 12:31:52;;;;;;;9.65;2.70;;;;;;;;;;10311586;28;20134;-68
2021/08/07 12:37:01;;;;;;;2.85;2.05;;;;;;;;;;10298801;28;20537;-67
2021/08/07 12:42:01;;;;;;;4.90;1.92;;;;;;;;;;10295740;28;20458;-68
2021/08/07 12:46:59;;;;;;;10.45;2.75;;;;;;;;;;10278958;28;20249;-62
2021/08/07 12:52:01;;;;;;;5.78;2.28;;;;;;;;;;10279040;28;20056;-61
2021/08/07 12:57:01;;;;;;;2.72;2.28;;;;;;;;;;10278108;28;20532;-59
2021/08/07 13:02:01;;;;;;;6.72;2.08;;;;;;;;;;10277490;28;20529;-58
2021/08/07 13:07:01;;;;;;;2.45;1.70;;;;;;;;;;10275277;28;20116;-60
2021/08/07 13:12:08;;;;;;;3.40;1.90;;;;;;;;;;10290936;28;20067;-60
2021/08/07 13:17:07;;;;;;;7.82;2.42;;;;;;;;;;10290594;28;20076;-60
2021/08/07 13:22:10;;;;;;;20.35;2.97;;;;;;;;;;10298594;28;20075;-60
2021/08/07 13:27:08;;;;;;;;;;;;;;;;;;10283314;28;20096;-60
2021/08/07 13:32:18;;;;;;;11.70;2.40;;;;;;;;;;10307811;28;19956;-61
2021/08/07 13:37:16;;;;;;;4.65;2.28;;;;;;;;;;10314407;28;20072;-61
2021/08/07 13:42:17;;;;;;;4.32;2.22;;;;;;;;;;10316815;28;20033;-61
2021/08/07 13:47:16;;;;;;;6.70;2.17;;;;;;;;;;10318156;28;20158;-60
2021/08/07 13:52:16;;;;;;;3.45;2.25;;;;;;;;;;10316922;28;20080;-60
2021/08/07 13:57:14;;;;;;;5.85;2.70;;;;;;;;;;10317879;28;20088;-59
2021/08/07 14:02:13;;;;;;;2.05;1.92;;;;;;;;;;10293022;28;20513;-60
2021/08/07 14:07:12;;;;;;;2.58;2.38;;;;;;;;;;10284109;28;20135;-61
2021/08/07 14:12:14;;;;;;;1.90;1.70;;;;;;;;;;10286623;28;20074;-59
2021/08/07 14:17:12;;;;;;;2.33;2.05;;;;;;;;;;10284205;28;20071;-60
2021/08/07 14:22:10;;;;;;;7.32;4.43;;;;;;;;;;10289532;28;20087;-58
2021/08/07 14:27:09;;;;;;;8.85;5.63;;;;;;;;;;10278495;28;20076;-62
2021/08/07 14:32:09;;;;;;;3.75;2.55;;;;;;;;;;10291852;28;20071;-64
2021/08/07 14:37:08;;;;;;;2.75;2.15;;;;;;;;;;10300042;28;20072;-61
2021/08/07 14:42:06;;;;;;;2.45;2.25;;;;;;;;;;10287474;28;20060;-60
2021/08/07 14:47:04;;;;;;;9.70;3.00;;;;;;;;;;10291705;28;20068;-58
2021/08/07 14:52:07;;;;;;;8.55;2.25;;;;;;;;;;10285262;28;20080;-59
2021/08/07 14:57:05;;;;;;;7.85;2.92;;;;;;;;;;10301630;28;20071;-61
2021/08/07 15:02:06;;;;;;;3.85;2.25;;;;;;;;;;10308413;28;20064;-59
2021/08/07 15:07:06;;;;;;;5.40;3.22;;;;;;;;;;10299702;28;20091;-60
2021/08/07 15:12:05;;;;;;;23.63;4.00;;;;;;;;;;10282874;28;20057;-59
2021/08/07 15:17:03;;;;;;;2.97;2.65;;;;;;;;;;10304612;28;20036;-59
2021/08/07 15:22:02;;;;;;;14.95;3.40;;;;;;;;;;10311957;28;20135;-58
2021/08/07 15:27:01;;;;;;;36.15;6.60;;;;;;;;;;10285198;28;20076;-58
2021/08/07 15:32:00;;;;;;;3.13;1.80;;;;;;;;;;10290100;28;20076;-58
2021/08/07 15:36:58;;;;;;;9.40;2.42;;;;;;;;;;10297566;28;20506;-58
2021/08/07 15:41:57;;;;;;;2.08;1.88;;;;;;;;;;10286370;28;20041;-59
2021/08/07 15:46:56;;;;;;;3.58;1.98;;;;;;;;;;10301731;28;20077;-60
2021/08/07 15:51:54;;;;;;;3.90;2.20;;;;;;;;;;10282035;28;20045;-60
2021/08/07 15:56:53;;;;;;;4.70;2.80;;;;;;;;;;10293330;28;20482;-59
2021/08/07 16:01:52;;;;;;;3.70;1.98;;;;;;;;;;10297692;28;20126;-58
2021/08/07 16:06:52;;;;;;;4.47;3.50;;;;;;;;;;10302442;28;20103;-59
2021/08/07 16:11:50;;;;;;;6.18;2.65;;;;;;;;;;10307961;28;20040;-59
2021/08/07 16:16:48;;;;;;;4.55;2.58;;;;;;;;;;10318547;28;20069;-60
2021/08/07 16:21:47;;;;;;;2.25;2.05;;;;;;;;;;10321474;28;20079;-58
2021/08/07 16:26:47;;;;;;;4.43;2.47;;;;;;;;;;10320757;28;20083;-58
2021/08/07 16:31:51;;;;;;;3.92;2.10;;;;;;;;;;10321269;28;20048;-59
2021/08/07 16:36:50;;;;;;;6.57;2.90;;;;;;;;;;10320273;28;20075;-58
2021/08/07 16:41:49;;;;;;;4.15;1.98;;;;;;;;;;10319215;28;20045;-59
2021/08/07 16:46:48;;;;;;;4.28;2.53;;;;;;;;;;10320762;28;20081;-59
2021/08/07 16:51:46;;;;;;;4.47;2.45;;;;;;;;;;10319961;28;20045;-59
2021/08/07 16:56:44;;;;;;;5.50;2.22;;;;;;;;;;10320178;28;20071;-59
2021/08/07 17:01:44;;;;;;;9.18;2.65;;;;;;;;;;10320236;28;20087;-59
2021/08/07 17:06:43;;;;;;;14.23;5.68;;;;;;;;;;10319990;28;20079;-59
2021/08/07 17:11:42;;;;;;;7.68;4.70;;;;;;;;;;10319981;28;20048;-59
2021/08/07 17:16:41;;;;;;;6.65;5.38;;;;;;;;;;10319612;28;20052;-59
2021/08/07 17:21:47;;;;;;;5.43;3.90;;;;;;;;;;10319325;28;20051;-59
2021/08/07 17:26:45;;;;;;;3.25;2.85;;;;;;;;;;10318832;28;20468;-58
2021/08/07 17:31:49;;;;;;;2.45;2.25;;;;;;;;;;10318941;28;20068;-58
2021/08/07 17:36:50;;;;;;;4.70;2.67;;;;;;;;;;10316811;28;20563;-58
2021/08/07 17:41:48;;;;;;;5.90;2.30;;;;;;;;;;10318525;28;20043;-58
2021/08/07 17:46:47;;;;;;;4.43;2.33;;;;;;;;;;10318102;28;20075;-58
2021/08/07 17:51:47;;;;;;;2.83;2.10;;;;;;;;;;10317869;28;20049;-59
2021/08/07 17:56:47;;;;;;;6.68;2.10;;;;;;;;;;10317956;28;20400;-59
2021/08/07 18:01:45;;;;;;;2.20;2.03;;;;;;;;;;10316831;28;20047;-59
2021/08/07 18:06:44;;;;;;;3.42;2.40;;;;;;;;;;10317415;28;20083;-58
2021/08/07 18:11:42;;;;;;;4.13;1.60;;;;;;;;;;10317533;28;20044;-58
2021/08/07 18:16:42;;;;;;;3.05;1.80;;;;;;;;;;10316617;28;20063;-58
2021/08/07 18:21:40;;;;;;;2.33;1.80;;;;;;;;;;10316869;28;20059;-58
2021/08/07 18:26:39;;;;;;;4.85;1.52;;;;;;;;;;10316847;28;20079;-58
2021/08/07 18:31:37;;;;;;;4.72;2.72;;;;;;;;;;10316140;28;20497;-59
2021/08/07 18:36:37;;;;;;;3.55;2.38;;;;;;;;;;10316142;28;20064;-59
2021/08/07 18:41:35;;;;;;;2.45;1.95;;;;;;;;;;10316662;28;20045;-59
2021/08/07 18:46:33;;;;;;;3.08;1.75;;;;;;;;;;10316195;28;20080;-59
2021/08/07 18:51:32;;;;;;;3.75;1.95;;;;;;;;;;10316488;28;20068;-59
2021/08/07 18:56:32;;;;;;;2.05;1.80;;;;;;;;;;10316241;28;20098;-59
2021/08/07 19:01:39;;;;;;;1.75;1.60;;;;;;;;;;10316123;28;20051;-60
2021/08/07 19:06:57;;;;;;;4.95;1.85;;;;;;;;;;10316207;28;20098;-59
2021/08/07 19:11:57;;;;;;;3.78;1.88;;;;;;;;;;10314384;28;20433;-59
2021/08/07 19:16:55;;;;;;;3.80;1.55;;;;;;;;;;10316072;28;20045;-59
2021/08/07 19:21:55;;;;;;;2.63;1.63;;;;;;;;;;10315944;28;20421;-60
2021/08/07 19:26:53;;;;;;;2.90;1.38;;;;;;;;;;10315636;28;20087;-59
2021/08/07 19:31:52;;;;;;;2.05;1.52;;;;;;;;;;10315575;28;20052;-59
2021/08/07 19:36:51;;;;;;;3.22;2.53;;;;;;;;;;10315034;28;20056;-59
2021/08/07 19:41:50;;;;;;;5.13;2.22;;;;;;;;;;10314753;28;20436;-59
2021/08/07 19:46:48;;;;;;;2.05;1.88;;;;;;;;;;10315263;28;20513;-59
2021/08/07 19:51:48;;;;;;;3.90;1.67;;;;;;;;;;10315327;28;20416;-59
2021/08/07 19:56:47;;;;;;;2.15;1.65;;;;;;;;;;10314395;28;20446;-59
2021/08/07 20:01:45;;;;;;;1.70;1.60;;;;;;;;;;10320480;28;20044;-59
2021/08/07 20:06:44;;;;;;;1.63;1.50;;;;;;;;;;10321913;28;20087;-59
2021/08/07 20:11:43;;;;;;;3.22;1.92;;;;;;;;;;10322279;28;20048;-59
2021/08/07 20:16:42;;;;;;;4.57;1.95;;;;;;;;;;10322023;28;20048;-59
2021/08/07 20:21:40;;;;;;;2.67;1.92;;;;;;;;;;10321704;28;20040;-59
2021/08/07 20:26:39;;;;;;;2.80;1.60;;;;;;;;;;10321552;28;20083;-59
2021/08/07 20:31:39;;;;;;;2.40;1.60;;;;;;;;;;10321160;28;20040;-59
2021/08/07 20:36:37;;;;;;;2.65;1.52;;;;;;;;;;10283861;28;20486;-63
2021/08/07 20:41:35;;;;;;;3.85;1.92;;;;;;;;;;10288394;28;20079;-59
2021/08/07 20:46:34;;;;;;;8.52;1.58;;;;;;;;;;10286540;28;20076;-59
2021/08/07 20:51:33;;;;;;;2.88;1.73;;;;;;;;;;10297199;28;20076;-59
2021/08/07 20:56:38;;;;;;;1.77;1.60;;;;;;;;;;10320136;28;20069;-59
2021/08/07 21:01:37;;;;;;;1.50;1.40;;;;;;;;;;10320114;28;20040;-59
2021/08/07 21:06:38;;;;;;;3.88;1.48;;;;;;;;;;10319203;28;20473;-59
2021/08/07 21:11:37;;;;;;;2.85;1.85;;;;;;;;;;10317697;28;20072;-62
2021/08/07 21:16:35;;;;;;;1.50;1.40;;;;;;;;;;10317925;28;20040;-59
2021/08/07 21:21:33;;;;;;;2.10;1.50;;;;;;;;;;10318388;28;20076;-59
2021/08/07 21:26:33;;;;;;;3.35;1.65;;;;;;;;;;10317266;28;20044;-58
2021/08/07 21:31:32;;;;;;;2.47;1.80;;;;;;;;;;10318783;28;20045;-57
2021/08/07 21:36:31;;;;;;;2.53;1.50;;;;;;;;;;10319258;28;20363;-59
2021/08/07 21:41:29;;;;;;;2.05;1.60;;;;;;;;;;10318490;28;20048;-58
2021/08/07 21:46:29;;;;;;;2.72;2.10;;;;;;;;;;10318304;28;20048;-57
2021/08/07 21:51:27;;;;;;;1.65;1.55;;;;;;;;;;10317881;28;20044;-59
2021/08/07 21:56:26;;;;;;;3.08;1.85;;;;;;;;;;10317966;28;20071;-58
2021/08/07 22:01:24;;;;;;;4.88;2.25;;;;;;;;;;10317744;28;20420;-58
2021/08/07 22:06:24;;;;;;;4.60;1.95;;;;;;;;;;10317569;28;20333;-59
2021/08/07 22:11:23;;;;;;;2.15;1.80;;;;;;;;;;10317147;28;20079;-59
2021/08/07 22:16:21;;;;;;;2.65;1.90;;;;;;;;;;10317256;28;20468;-58
2021/08/07 22:21:20;;;;;;;4.60;2.05;;;;;;;;;;10316319;28;20075;-61
2021/08/07 22:26:20;;;;;;;2.00;1.80;;;;;;;;;;10316947;28;20048;-57
2021/08/07 22:31:21;;;;;;;7.20;2.20;;;;;;;;;;10316093;28;20521;-58
2021/08/07 22:36:19;;;;;;;4.10;2.08;;;;;;;;;;10316079;28;20060;-57
2021/08/07 22:41:20;;;;;;;5.30;1.60;;;;;;;;;;10316459;28;20044;-58
2021/08/07 22:46:20;;;;;;;5.30;2.38;;;;;;;;;;10316186;28;20037;-58
2021/08/07 22:51:18;;;;;;;3.15;2.20;;;;;;;;;;10316726;28;20098;-58
2021/08/07 22:56:16;;;;;;;4.90;2.22;;;;;;;;;;10316434;28;20484;-58
2021/08/07 23:01:15;;;;;;;2.95;1.90;;;;;;;;;;10315914;28;20048;-58
2021/08/07 23:06:15;;;;;;;3.92;2.08;;;;;;;;;;10316466;28;20045;-59
2021/08/07 23:11:13;;;;;;;3.80;1.98;;;;;;;;;;10315926;28;20486;-57
2021/08/07 23:16:12;;;;;;;2.70;2.05;;;;;;;;;;10316104;28;20072;-57
2021/08/07 23:21:10;;;;;;;2.28;1.75;;;;;;;;;;10315915;28;20052;-59
2021/08/07 23:26:10;;;;;;;3.90;2.15;;;;;;;;;;10315864;28;20417;-58
2021/08/07 23:31:10;;;;;;;3.47;2.10;;;;;;;;;;10316031;28;20079;-58
2021/08/07 23:36:09;;;;;;;2.88;2.08;;;;;;;;;;10319236;28;20049;-59
2021/08/07 23:41:07;;;;;;;6.63;2.65;;;;;;;;;;10323234;28;20080;-58
2021/08/07 23:46:07;;;;;;;4.53;1.90;;;;;;;;;;10322850;28;20040;-59
2021/08/07 23:51:05;;;;;;;4.20;1.80;;;;;;;;;;10322238;28;20086;-58
2021/08/07 23:56:03;;;;;;;3.00;2.17;;;;;;;;;;10322482;28;20041;-58
